createdAt,value
2023-05-18T00:02:08.623Z,3.00
2023-05-18T00:04:36.339Z,2.10
2023-05-18T00:07:04.269Z,3.00
2023-05-18T00:09:32.723Z,2.30
2023-05-18T00:12:00.144Z,2.40
2023-05-18T00:14:27.465Z,2.70
2023-05-18T00:16:54.889Z,2.40
2023-05-18T00:19:24.245Z,3.40
2023-05-18T00:21:52.767Z,4.00
2023-05-18T00:24:19.657Z,2.50
2023-05-18T00:26:47.234Z,3.00
2023-05-18T00:29:14.220Z,2.80
2023-05-18T00:31:42.401Z,2.60
2023-05-18T00:34:10.112Z,2.80
2023-05-18T00:36:37.634Z,2.80
2023-05-18T00:39:05.085Z,2.80
2023-05-18T00:41:32.124Z,2.90
2023-05-18T00:44:00.176Z,2.90
2023-05-18T00:46:28.175Z,4.00
2023-05-18T00:48:57.318Z,3.80
2023-05-18T00:51:24.714Z,2.70
2023-05-18T00:53:52.812Z,2.80
2023-05-18T00:56:20.099Z,2.90
2023-05-18T00:58:48.406Z,3.20
2023-05-18T01:01:17.994Z,2.80
2023-05-18T01:03:45.066Z,2.70
2023-05-18T01:06:13.022Z,2.80
2023-05-18T01:08:42.036Z,2.90
2023-05-18T01:11:39.010Z,2.90
2023-05-18T01:14:20.299Z,2.90
2023-05-18T01:17:10.594Z,2.60
2023-05-18T01:19:52.603Z,2.70
2023-05-18T01:22:44.772Z,2.90
2023-05-18T01:25:19.511Z,2.40
2023-05-18T01:27:46.800Z,3.10
2023-05-18T01:30:16.248Z,3.40
2023-05-18T01:32:43.479Z,2.50
2023-05-18T01:35:10.482Z,3.00
2023-05-18T01:37:37.647Z,3.00
2023-05-18T01:40:06.053Z,2.80
2023-05-18T01:42:34.620Z,3.00
2023-05-18T01:45:04.111Z,2.90
2023-05-18T01:47:31.777Z,2.50
2023-05-18T01:50:15.261Z,2.90
2023-05-18T01:52:58.130Z,2.40
2023-05-18T01:55:25.308Z,2.20
2023-05-18T01:57:52.269Z,3.10
2023-05-18T02:00:19.934Z,2.80
2023-05-18T02:02:47.423Z,3.00
2023-05-18T02:05:14.904Z,3.60
2023-05-18T02:07:44.164Z,2.40
2023-05-18T02:10:11.985Z,2.30
2023-05-18T02:12:39.032Z,2.80
2023-05-18T02:15:07.300Z,3.00
2023-05-18T02:17:38.255Z,3.00
2023-05-18T02:20:10.291Z,2.50
2023-05-18T02:22:37.449Z,4.10
2023-05-18T02:25:05.793Z,2.60
2023-05-18T02:27:33.599Z,2.30
2023-05-18T02:30:00.762Z,2.90
2023-05-18T02:32:28.198Z,2.70
2023-05-18T02:34:55.288Z,3.20
2023-05-18T02:37:23.270Z,2.70
2023-05-18T02:39:50.812Z,3.10
2023-05-18T02:42:17.828Z,2.80
2023-05-18T02:44:44.753Z,2.80
2023-05-18T02:47:14.348Z,2.80
2023-05-18T02:49:41.316Z,2.90
2023-05-18T02:52:09.134Z,2.50
2023-05-18T02:54:36.409Z,2.70
2023-05-18T02:57:03.917Z,3.00
2023-05-18T02:59:43.816Z,3.20
2023-05-18T03:02:14.460Z,3.10
2023-05-18T03:04:42.339Z,2.60
2023-05-18T03:07:10.672Z,2.90
2023-05-18T03:09:38.210Z,3.20
2023-05-18T03:12:06.479Z,3.10
2023-05-18T03:14:34.498Z,3.10
2023-05-18T03:17:01.829Z,2.70
2023-05-18T03:19:29.297Z,3.40
2023-05-18T03:21:58.072Z,3.10
2023-05-18T03:24:26.769Z,3.00
2023-05-18T03:26:55.284Z,3.10
2023-05-18T03:29:22.855Z,2.70
2023-05-18T03:31:50.364Z,2.80
2023-05-18T03:34:18.176Z,3.10
2023-05-18T03:36:47.587Z,3.20
2023-05-18T03:39:14.983Z,3.40
2023-05-18T03:41:41.929Z,3.70
2023-05-18T03:44:09.440Z,4.50
2023-05-18T03:46:36.811Z,4.40
2023-05-18T03:49:05.230Z,4.70
2023-05-18T03:51:36.641Z,4.10
2023-05-18T03:54:04.092Z,4.40
2023-05-18T03:56:31.853Z,4.10
2023-05-18T03:58:59.038Z,4.50
2023-05-18T04:01:26.292Z,4.70
2023-05-18T04:03:56.762Z,5.50
2023-05-18T04:06:26.313Z,4.10
2023-05-18T04:08:53.674Z,4.80
2023-05-18T04:11:21.618Z,5.20
2023-05-18T04:13:50.061Z,6.10
2023-05-18T04:16:17.204Z,5.10
2023-05-18T04:18:44.514Z,4.90
2023-05-18T04:21:11.911Z,5.50
2023-05-18T04:23:39.213Z,5.50
2023-05-18T04:26:06.960Z,7.20
2023-05-18T04:28:34.072Z,5.90
2023-05-18T04:31:01.898Z,6.30
2023-05-18T04:33:29.671Z,6.30
2023-05-18T04:35:58.870Z,6.00
2023-05-18T04:38:26.219Z,6.20
2023-05-18T04:40:54.041Z,5.90
2023-05-18T04:43:21.357Z,6.90
2023-05-18T04:45:50.881Z,7.20
2023-05-18T04:48:19.322Z,6.40
2023-05-18T04:50:47.220Z,6.10
2023-05-18T04:53:18.204Z,6.50
2023-05-18T04:55:46.292Z,6.40
2023-05-18T04:58:13.480Z,5.80
2023-05-18T05:00:40.445Z,5.60
2023-05-18T05:03:07.564Z,5.90
2023-05-18T05:05:35.097Z,5.60
2023-05-18T05:08:02.282Z,7.50
2023-05-18T05:10:29.977Z,5.30
2023-05-18T05:12:57.018Z,5.30
2023-05-18T05:15:24.571Z,6.40
2023-05-18T05:17:51.827Z,5.80
2023-05-18T05:20:19.015Z,7.40
2023-05-18T05:22:46.162Z,6.10
2023-05-18T05:25:17.021Z,5.20
2023-05-18T05:27:44.868Z,4.70
2023-05-18T05:30:13.272Z,5.50
2023-05-18T05:32:43.352Z,5.60
2023-05-18T05:35:22.432Z,5.60
2023-05-18T05:38:24.107Z,6.40
2023-05-18T05:41:11.975Z,5.90
2023-05-18T05:43:40.366Z,6.00
2023-05-18T05:47:02.570Z,5.60
2023-05-18T05:49:46.460Z,5.80
2023-05-18T05:52:29.270Z,6.80
2023-05-18T05:55:28.608Z,6.20
2023-05-18T05:58:40.231Z,6.60
2023-05-18T06:01:32.562Z,6.30
2023-05-18T06:04:13.096Z,6.20
2023-05-18T06:06:40.129Z,6.60
2023-05-18T06:09:08.168Z,6.10
2023-05-18T06:11:37.260Z,5.80
2023-05-18T06:14:21.651Z,6.10
2023-05-18T06:17:10.350Z,5.60
2023-05-18T06:24:57.532Z,6.90
2023-05-18T06:36:19.952Z,6.30
2023-05-18T06:39:30.968Z,6.00
2023-05-18T06:42:12.840Z,5.30
2023-05-18T06:44:52.869Z,7.10
2023-05-18T06:47:27.387Z,6.40
2023-05-18T06:49:55.926Z,6.20
2023-05-18T06:52:29.473Z,6.10
2023-05-18T06:55:01.400Z,6.90
2023-05-18T06:57:29.253Z,6.10
2023-05-18T06:59:57.160Z,7.00
2023-05-18T07:02:25.780Z,7.30
2023-05-18T07:04:53.205Z,6.40
2023-05-18T07:07:20.715Z,6.30
2023-05-18T07:09:50.015Z,6.30
2023-05-18T07:12:17.957Z,5.90
2023-05-18T07:14:45.248Z,6.90
2023-05-18T07:17:12.210Z,6.00
2023-05-18T07:19:45.317Z,5.70
2023-05-18T07:22:12.340Z,6.20
2023-05-18T07:24:39.282Z,6.20
2023-05-18T07:27:06.328Z,6.80
2023-05-18T07:29:34.353Z,8.20
2023-05-18T07:32:01.643Z,5.80
2023-05-18T07:34:28.610Z,6.70
2023-05-18T07:36:56.340Z,6.20
2023-05-18T07:39:28.695Z,6.30
2023-05-18T07:44:27.730Z,5.50
2023-05-18T07:46:56.705Z,7.00
2023-05-18T07:49:23.853Z,6.40
2023-05-18T07:51:59.740Z,6.50
2023-05-18T07:54:30.970Z,6.70
2023-05-18T07:57:01.003Z,6.50
2023-05-18T07:59:31.291Z,7.00
2023-05-18T08:02:02.601Z,6.10
2023-05-18T08:04:31.978Z,6.40
2023-05-18T08:07:18.122Z,6.00
2023-05-18T08:14:12.038Z,7.50
2023-05-18T08:17:05.675Z,7.10
2023-05-18T08:24:01.222Z,6.10
2023-05-18T08:32:26.558Z,7.00
2023-05-18T08:35:44.509Z,6.20
2023-05-18T08:39:06.633Z,7.00
2023-05-18T08:42:50.745Z,7.10
2023-05-18T08:45:39.933Z,8.00
2023-05-18T08:48:29.578Z,7.40
2023-05-18T08:54:27.159Z,6.90
2023-05-18T08:57:25.716Z,6.60
2023-05-18T09:10:36.084Z,7.10
2023-05-18T09:13:25.914Z,7.10
2023-05-18T09:16:52.503Z,6.80
2023-05-18T09:20:28.545Z,7.40
2023-05-18T09:23:36.844Z,6.40
2023-05-18T09:26:38.118Z,6.50
2023-05-18T09:30:34.563Z,7.00
2023-05-18T09:33:18.590Z,7.20
2023-05-18T09:35:47.838Z,6.70
2023-05-18T09:38:28.477Z,7.40
2023-05-18T09:41:21.992Z,7.40
2023-05-18T09:44:28.613Z,6.70
2023-05-18T09:47:54.553Z,7.50
2023-05-18T09:50:35.341Z,7.20
2023-05-18T09:53:03.608Z,8.20
2023-05-18T09:55:31.016Z,8.90
2023-05-18T09:57:58.410Z,8.00
2023-05-18T10:00:27.403Z,8.00
2023-05-18T10:02:56.600Z,9.00
2023-05-18T10:05:27.355Z,8.30
2023-05-18T10:07:58.413Z,8.10
2023-05-18T10:10:37.221Z,7.90
2023-05-18T10:13:05.176Z,7.60
2023-05-18T10:15:33.554Z,8.40
2023-05-18T10:18:00.991Z,7.80
2023-05-18T10:20:28.550Z,7.60
2023-05-18T10:22:56.249Z,8.40
2023-05-18T10:25:24.038Z,8.30
2023-05-18T10:27:51.859Z,8.90
2023-05-18T10:30:19.002Z,8.40
2023-05-18T10:32:46.404Z,7.00
2023-05-18T10:35:14.203Z,7.90
2023-05-18T10:37:44.430Z,7.90
2023-05-18T10:40:12.870Z,8.10
2023-05-18T10:42:40.034Z,8.30
2023-05-18T10:45:07.714Z,8.00
2023-05-18T10:47:36.385Z,9.00
2023-05-18T10:50:03.606Z,7.90
2023-05-18T10:52:31.975Z,8.80
2023-05-18T10:55:00.654Z,8.10
2023-05-18T10:57:35.442Z,8.00
2023-05-18T11:00:09.522Z,7.80
2023-05-18T11:02:40.305Z,8.80
2023-05-18T11:05:07.796Z,8.70
2023-05-18T11:07:35.051Z,8.40
2023-05-18T11:10:03.081Z,7.30
2023-05-18T11:12:33.040Z,7.40
2023-05-18T11:15:01.100Z,7.40
2023-05-18T11:17:31.319Z,8.10
2023-05-18T11:20:11.938Z,8.10
2023-05-18T11:22:45.853Z,8.20
2023-05-18T11:25:28.352Z,8.60
2023-05-18T11:30:40.442Z,7.30
2023-05-18T11:33:28.204Z,7.30
2023-05-18T11:36:15.136Z,8.00
2023-05-18T11:39:04.918Z,7.70
2023-05-18T11:41:35.708Z,8.30
2023-05-18T11:44:11.821Z,7.60
2023-05-18T11:46:54.304Z,8.10
2023-05-18T11:49:23.636Z,8.80
2023-05-18T11:52:04.462Z,8.40
2023-05-18T11:54:43.518Z,8.50
2023-05-18T11:57:11.112Z,7.90
2023-05-18T11:59:39.783Z,8.70
2023-05-18T12:02:06.771Z,7.60
2023-05-18T12:04:34.312Z,8.10
2023-05-18T12:07:04.806Z,8.40
2023-05-18T12:09:32.206Z,8.30
2023-05-18T12:11:59.199Z,8.30
2023-05-18T12:14:26.126Z,7.70
2023-05-18T12:16:53.191Z,8.10
2023-05-18T12:19:20.422Z,7.50
2023-05-18T12:21:47.716Z,8.30
2023-05-18T12:24:15.294Z,8.40
2023-05-18T12:26:42.466Z,7.70
2023-05-18T12:29:11.441Z,7.70
2023-05-18T12:31:41.306Z,9.10
2023-05-18T12:34:09.777Z,8.30
2023-05-18T12:36:41.835Z,7.90
2023-05-18T12:39:09.159Z,8.50
2023-05-18T12:41:36.153Z,8.90
2023-05-18T12:44:04.867Z,8.20
2023-05-18T12:46:32.037Z,8.40
2023-05-18T12:49:01.603Z,8.30
2023-05-18T12:51:39.007Z,9.30
2023-05-18T12:54:06.854Z,8.30
2023-05-18T12:56:53.213Z,8.50
2023-05-18T12:59:20.223Z,8.70
2023-05-18T13:01:47.340Z,8.80
2023-05-18T13:04:14.487Z,8.40
2023-05-18T13:06:42.231Z,7.30
2023-05-18T13:09:12.438Z,9.00
2023-05-18T13:11:39.550Z,8.90
2023-05-18T13:14:07.870Z,8.00
2023-05-18T13:16:37.421Z,8.90
2023-05-18T13:19:07.048Z,8.40
2023-05-18T13:21:34.700Z,9.00
2023-05-18T13:24:02.643Z,9.60
2023-05-18T13:26:29.568Z,8.90
